createdAt,value
2023-05-16T00:01:49.526Z,11.93
2023-05-16T00:04:15.716Z,10.48
2023-05-16T00:06:41.575Z,9.77
2023-05-16T00:09:07.291Z,13.95
2023-05-16T00:11:33.072Z,11.02
2023-05-16T00:13:59.663Z,11.35
2023-05-16T00:16:25.445Z,12.50
2023-05-16T00:18:52.034Z,9.50
2023-05-16T00:21:17.821Z,13.88
2023-05-16T00:23:43.796Z,14.05
2023-05-16T00:26:09.616Z,14.88
2023-05-16T00:28:35.365Z,13.55
2023-05-16T00:31:01.174Z,13.85
2023-05-16T00:33:26.980Z,22.83
2023-05-16T00:35:53.329Z,11.18
2023-05-16T00:38:19.233Z,12.57
2023-05-16T00:40:46.017Z,11.85
2023-05-16T00:43:11.772Z,17.25
2023-05-16T00:45:37.589Z,13.10
2023-05-16T00:48:03.466Z,14.95
2023-05-16T00:50:29.576Z,16.70
2023-05-16T00:52:55.547Z,15.10
2023-05-16T00:55:21.428Z,11.55
2023-05-16T00:57:47.220Z,13.82
2023-05-16T01:00:14.755Z,16.15
2023-05-16T01:02:41.053Z,12.90
2023-05-16T01:05:07.879Z,22.55
2023-05-16T01:07:34.724Z,15.65
2023-05-16T01:10:01.044Z,19.65
2023-05-16T01:12:35.916Z,19.15
2023-05-16T01:15:05.197Z,17.00
2023-05-16T01:17:33.813Z,16.98
2023-05-16T01:19:59.734Z,20.35
2023-05-16T01:22:32.242Z,15.95
2023-05-16T01:25:07.293Z,14.35
2023-05-16T01:27:34.409Z,13.98
2023-05-16T01:30:00.135Z,16.90
2023-05-16T01:32:25.997Z,16.65
2023-05-16T01:34:51.927Z,19.67
2023-05-16T01:37:25.520Z,17.38
2023-05-16T01:40:04.025Z,16.27
2023-05-16T01:42:32.309Z,16.65
2023-05-16T01:45:11.865Z,13.95
2023-05-16T01:47:39.624Z,16.27
2023-05-16T01:50:15.834Z,19.73
2023-05-16T01:52:48.259Z,15.45
2023-05-16T01:55:29.109Z,17.40
2023-05-16T02:00:20.734Z,12.15
2023-05-16T02:02:46.558Z,12.77
2023-05-16T02:05:12.538Z,36.17
2023-05-16T02:07:38.372Z,13.07
2023-05-16T02:10:04.442Z,13.48
2023-05-16T02:12:30.178Z,12.48
2023-05-16T02:14:55.928Z,15.25
2023-05-16T02:17:22.064Z,13.25
2023-05-16T02:19:47.813Z,10.85
2023-05-16T02:22:13.553Z,31.08
2023-05-16T02:24:39.263Z,10.27
2023-05-16T02:27:05.604Z,16.63
2023-05-16T02:29:31.378Z,9.55
2023-05-16T02:31:57.107Z,14.00
2023-05-16T02:34:22.809Z,9.00
2023-05-16T02:36:48.530Z,10.98
2023-05-16T02:39:14.256Z,13.60
2023-05-16T02:41:39.984Z,11.10
2023-05-16T02:44:05.716Z,12.05
2023-05-16T02:46:33.507Z,14.15
2023-05-16T02:48:59.773Z,13.73
2023-05-16T02:51:26.260Z,12.05
2023-05-16T02:53:52.433Z,16.40
2023-05-16T02:56:18.513Z,12.95
2023-05-16T02:58:46.004Z,16.60
2023-05-16T03:01:11.786Z,11.45
2023-05-16T03:03:37.752Z,13.15
2023-05-16T03:06:03.634Z,13.25
2023-05-16T03:08:29.380Z,16.42
2023-05-16T03:10:55.079Z,12.70
2023-05-16T03:13:22.265Z,17.45
2023-05-16T03:15:48.036Z,13.75
2023-05-16T03:18:13.774Z,22.08
2023-05-16T03:20:39.611Z,15.85
2023-05-16T03:23:07.563Z,14.30
2023-05-16T03:25:36.581Z,15.57
2023-05-16T03:28:02.836Z,14.23
2023-05-16T03:30:28.601Z,15.27
2023-05-16T03:32:54.966Z,16.95
2023-05-16T03:35:21.764Z,17.75
2023-05-16T03:37:47.705Z,16.25
2023-05-16T03:40:13.462Z,16.20
2023-05-16T03:42:39.607Z,19.25
2023-05-16T03:45:06.098Z,16.75
2023-05-16T03:47:32.176Z,16.63
2023-05-16T03:49:58.051Z,12.50
2023-05-16T03:52:23.958Z,14.98
2023-05-16T03:54:49.699Z,18.38
2023-05-16T03:57:15.802Z,14.85
2023-05-16T03:59:41.707Z,14.45
2023-05-16T04:02:07.636Z,17.95
2023-05-16T04:04:33.456Z,15.68
2023-05-16T04:07:00.123Z,13.48
2023-05-16T04:09:25.879Z,14.82
2023-05-16T04:11:51.631Z,14.32
2023-05-16T04:14:17.342Z,16.48
2023-05-16T04:16:43.143Z,16.15
2023-05-16T04:19:08.914Z,14.32
2023-05-16T04:21:35.733Z,15.00
2023-05-16T04:24:01.656Z,14.15
2023-05-16T04:26:27.381Z,13.18
2023-05-16T04:28:53.372Z,11.48
2023-05-16T04:31:19.226Z,13.32
2023-05-16T04:33:45.352Z,11.63
2023-05-16T04:36:11.745Z,15.43
2023-05-16T04:38:37.451Z,13.95
2023-05-16T04:41:03.247Z,17.02
2023-05-16T04:43:29.736Z,13.90
2023-05-16T04:45:57.907Z,12.85
2023-05-16T04:48:23.941Z,14.27
2023-05-16T04:50:49.784Z,17.02
2023-05-16T04:53:15.720Z,12.70
2023-05-16T04:55:41.674Z,13.88
2023-05-16T04:58:07.676Z,13.95
2023-05-16T05:00:33.621Z,11.93
2023-05-16T05:02:59.488Z,14.02
2023-05-16T05:05:25.484Z,14.40
2023-05-16T05:07:51.974Z,11.07
2023-05-16T05:10:17.821Z,14.05
2023-05-16T05:12:43.580Z,12.77
2023-05-16T05:15:09.400Z,14.02
2023-05-16T05:17:35.484Z,17.63
2023-05-16T05:20:03.079Z,18.05
2023-05-16T05:22:29.592Z,13.95
2023-05-16T05:24:55.683Z,15.90
2023-05-16T05:27:21.974Z,10.07
2023-05-16T05:29:48.037Z,17.50
2023-05-16T05:32:14.086Z,17.17
2023-05-16T05:34:40.218Z,16.05
2023-05-16T05:37:06.164Z,13.73
2023-05-16T05:39:31.996Z,12.93
2023-05-16T05:41:58.329Z,14.50
2023-05-16T05:44:24.206Z,12.75
2023-05-16T05:46:50.780Z,14.13
2023-05-16T05:49:17.249Z,11.10
2023-05-16T05:51:43.105Z,12.80
2023-05-16T05:54:09.298Z,11.70
2023-05-16T05:56:35.407Z,11.90
2023-05-16T05:59:01.533Z,13.90
2023-05-16T06:01:27.460Z,11.20
2023-05-16T06:03:53.197Z,13.73
2023-05-16T06:06:19.025Z,12.82
2023-05-16T06:08:45.048Z,15.23
2023-05-16T06:11:10.958Z,9.88
2023-05-16T06:13:46.035Z,10.63
2023-05-16T06:16:12.277Z,9.63
2023-05-16T06:18:40.932Z,12.88
2023-05-16T06:21:07.252Z,11.93
2023-05-16T06:23:33.424Z,13.00
2023-05-16T06:25:59.424Z,9.35
2023-05-16T06:28:25.403Z,12.80
2023-05-16T06:30:51.557Z,10.13
2023-05-16T06:33:17.797Z,8.38
2023-05-16T06:35:43.794Z,8.43
2023-05-16T06:38:10.009Z,8.57
2023-05-16T06:40:36.848Z,9.48
2023-05-16T06:43:03.055Z,10.18
2023-05-16T06:45:29.611Z,9.05
2023-05-16T06:47:57.606Z,13.80
2023-05-16T06:50:23.803Z,10.07
2023-05-16T06:52:50.008Z,9.52
2023-05-16T06:55:16.260Z,8.18
2023-05-16T06:57:42.345Z,11.23
2023-05-16T07:00:08.629Z,10.35
2023-05-16T07:02:34.777Z,8.30
2023-05-16T07:05:01.458Z,12.27
2023-05-16T07:07:27.519Z,9.18
2023-05-16T07:09:53.710Z,7.68
2023-05-16T07:12:20.630Z,10.43
2023-05-16T07:14:47.273Z,8.95
2023-05-16T07:17:13.728Z,6.47
2023-05-16T07:19:41.523Z,6.45
2023-05-16T07:22:08.278Z,6.97
2023-05-16T07:24:35.745Z,9.63
2023-05-16T07:27:02.448Z,10.73
2023-05-16T07:29:29.840Z,6.57
2023-05-16T07:31:56.167Z,9.23
2023-05-16T07:34:31.780Z,6.40
2023-05-16T07:36:57.707Z,6.72
2023-05-16T07:39:24.223Z,4.80
2023-05-16T07:41:50.609Z,4.63
2023-05-16T07:44:35.665Z,12.50
2023-05-16T07:47:02.011Z,5.63
2023-05-16T07:49:28.065Z,4.28
2023-05-16T07:51:54.147Z,4.28
2023-05-16T07:54:20.182Z,15.55
2023-05-16T07:56:46.303Z,6.15
2023-05-16T07:59:12.436Z,6.45
2023-05-16T08:01:38.755Z,7.18
2023-05-16T08:04:04.880Z,3.92
2023-05-16T08:06:31.048Z,4.22
2023-05-16T08:08:56.985Z,4.68
2023-05-16T08:11:22.954Z,4.78
2023-05-16T08:13:49.587Z,8.75
2023-05-16T08:16:15.691Z,4.65
2023-05-16T08:18:43.773Z,5.47
2023-05-16T08:21:10.038Z,2.65
2023-05-16T08:23:36.037Z,5.43
2023-05-16T08:26:02.843Z,4.70
2023-05-16T08:28:29.089Z,4.55
2023-05-16T08:30:57.773Z,6.25
2023-05-16T08:33:25.008Z,4.95
2023-05-16T08:35:52.356Z,5.70
2023-05-16T08:38:19.382Z,4.15
2023-05-16T08:40:45.627Z,4.75
2023-05-16T08:43:21.033Z,2.67
2023-05-16T08:45:46.987Z,5.80
2023-05-16T08:48:15.316Z,3.15
2023-05-16T08:50:42.418Z,5.40
2023-05-16T08:53:09.199Z,4.80
2023-05-16T08:55:35.895Z,6.45
2023-05-16T08:58:02.959Z,4.25
2023-05-16T09:00:29.184Z,3.67
2023-05-16T09:02:55.758Z,5.10
2023-05-16T09:05:21.962Z,8.00
2023-05-16T09:07:48.658Z,7.32
2023-05-16T09:10:14.869Z,5.60
2023-05-16T09:12:42.478Z,5.85
2023-05-16T09:15:10.306Z,5.80
2023-05-16T09:17:39.925Z,7.00
2023-05-16T09:20:17.441Z,6.80
2023-05-16T09:22:53.771Z,6.68
2023-05-16T09:25:29.517Z,5.40
2023-05-16T09:27:58.020Z,7.10
2023-05-16T09:30:28.463Z,10.00
2023-05-16T09:32:54.515Z,7.15
2023-05-16T09:35:35.052Z,6.53
2023-05-16T09:38:13.113Z,7.70
2023-05-16T09:40:41.177Z,7.72
2023-05-16T09:43:07.972Z,9.48
2023-05-16T09:45:34.592Z,7.45
2023-05-16T09:48:02.143Z,3.83
2023-05-16T09:50:28.236Z,5.50
2023-05-16T09:52:54.193Z,9.27
2023-05-16T09:55:22.138Z,12.93
2023-05-16T09:57:48.931Z,4.85
2023-05-16T10:00:15.290Z,8.68
2023-05-16T10:02:41.645Z,7.95
2023-05-16T10:05:08.100Z,12.98
2023-05-16T10:07:36.797Z,5.97
2023-05-16T10:10:05.310Z,5.88
2023-05-16T10:12:32.598Z,5.75
2023-05-16T10:15:02.508Z,8.88
2023-05-16T10:17:31.562Z,10.10
2023-05-16T10:19:58.065Z,8.95
2023-05-16T10:22:24.556Z,11.65
2023-05-16T10:25:03.929Z,8.60
2023-05-16T10:27:30.685Z,7.35
2023-05-16T10:30:01.369Z,4.95
2023-05-16T10:32:27.729Z,4.05
2023-05-16T10:34:55.404Z,8.35
2023-05-16T10:37:22.292Z,8.45
2023-05-16T10:39:48.327Z,9.15
2023-05-16T10:42:17.719Z,7.25
2023-05-16T10:45:08.468Z,8.02
2023-05-16T10:50:00.351Z,5.60
2023-05-16T10:52:33.316Z,8.68
2023-05-16T10:55:01.717Z,7.55
2023-05-16T10:57:27.689Z,7.22
2023-05-16T10:59:56.661Z,11.95
2023-05-16T11:02:33.090Z,5.82
2023-05-16T11:05:01.046Z,13.18
2023-05-16T11:07:34.436Z,8.93
2023-05-16T11:10:04.890Z,6.93
2023-05-16T11:12:47.181Z,10.75
2023-05-16T11:15:31.922Z,8.55
2023-05-16T11:18:08.447Z,17.42
2023-05-16T11:20:35.622Z,8.35
2023-05-16T11:23:17.609Z,7.28
2023-05-16T11:25:47.629Z,12.02
2023-05-16T11:28:14.987Z,9.15
2023-05-16T11:30:46.339Z,7.38
2023-05-16T11:33:13.503Z,8.25
2023-05-16T11:35:39.657Z,8.27
2023-05-16T11:38:05.981Z,11.85
2023-05-16T11:40:31.891Z,9.05
2023-05-16T11:43:06.505Z,12.05
2023-05-16T11:45:33.846Z,10.30
2023-05-16T11:48:06.151Z,9.55
2023-05-16T11:50:36.324Z,5.65
2023-05-16T11:53:02.772Z,11.00
2023-05-16T11:55:41.833Z,8.13
2023-05-16T11:58:08.724Z,7.53
2023-05-16T12:00:34.761Z,11.93
2023-05-16T12:03:03.149Z,12.23
2023-05-16T12:05:32.065Z,8.82
2023-05-16T12:07:59.563Z,14.35
2023-05-16T12:10:25.964Z,9.55
2023-05-16T12:13:01.957Z,7.68
2023-05-16T12:15:28.103Z,7.32
2023-05-16T12:17:54.642Z,7.30
2023-05-16T12:20:20.722Z,7.25
2023-05-16T12:22:46.911Z,6.80
2023-05-16T12:25:33.160Z,10.45
2023-05-16T12:28:00.793Z,7.97
2023-05-16T12:30:28.127Z,9.38
2023-05-16T12:33:08.413Z,4.80
2023-05-16T12:35:37.048Z,5.32
2023-05-16T12:38:07.158Z,8.30
2023-05-16T12:40:33.206Z,7.40
2023-05-16T12:42:59.394Z,7.60
2023-05-16T12:45:28.376Z,6.97
2023-05-16T12:47:54.778Z,9.57
2023-05-16T12:50:24.879Z,6.78
2023-05-16T12:52:52.826Z,9.38
2023-05-16T12:55:19.972Z,8.40
2023-05-16T12:57:49.528Z,9.23
2023-05-16T13:00:18.458Z,8.35
2023-05-16T13:02:45.286Z,7.47
2023-05-16T13:05:11.614Z,5.28
2023-05-16T13:07:40.144Z,6.88
2023-05-16T13:10:10.177Z,8.73
2023-05-16T13:12:39.010Z,6.38
2023-05-16T13:15:07.087Z,5.72
2023-05-16T13:17:36.161Z,8.00
2023-05-16T13:20:09.306Z,8.85
2023-05-16T13:22:36.062Z,8.07
2023-05-16T13:25:04.250Z,5.47
2023-05-16T13:27:30.649Z,7.45
2023-05-16T13:29:56.598Z,4.97
2023-05-16T13:32:22.816Z,5.57
2023-05-16T13:34:49.214Z,8.23
2023-05-16T13:37:16.118Z,7.75
2023-05-16T13:39:42.179Z,3.92
2023-05-16T13:42:08.988Z,8.60
2023-05-16T13:44:41.909Z,5.50
2023-05-16T13:47:08.128Z,8.30
2023-05-16T13:49:34.699Z,4.93
2023-05-16T13:52:03.130Z,6.93
2023-05-16T13:54:31.419Z,8.38
2023-05-16T13:56:59.066Z,7.00
2023-05-16T13:59:41.057Z,8.02
2023-05-16T14:02:11.675Z,3.85
2023-05-16T14:04:37.746Z,3.80
2023-05-16T14:07:03.793Z,5.60
2023-05-16T14:09:30.220Z,7.82
2023-05-16T14:11:56.619Z,9.75
2023-05-16T14:14:41.407Z,4.85
2023-05-16T14:17:07.519Z,4.97
2023-05-16T14:19:34.233Z,7.13
2023-05-16T14:22:00.376Z,3.70
2023-05-16T14:24:26.606Z,7.10
2023-05-16T14:26:57.285Z,5.03
2023-05-16T14:31:50.975Z,4.57
2023-05-16T14:34:17.846Z,5.70
2023-05-16T14:36:44.064Z,5.65
2023-05-16T14:39:12.229Z,3.20
2023-05-16T14:41:38.327Z,3.30
2023-05-16T14:44:35.153Z,4.85
2023-05-16T14:47:01.260Z,2.88
2023-05-16T14:49:27.236Z,5.10
2023-05-16T14:51:53.240Z,5.50
2023-05-16T14:54:19.267Z,9.15
2023-05-16T14:56:45.292Z,9.85
2023-05-16T14:59:13.013Z,3.70
2023-05-16T15:01:39.585Z,4.45
2023-05-16T15:04:05.576Z,9.32
2023-05-16T15:06:31.660Z,5.45
2023-05-16T15:08:58.094Z,2.42
2023-05-16T15:11:26.046Z,5.32
2023-05-16T15:14:01.486Z,4.25
2023-05-16T15:16:30.044Z,4.38
2023-05-16T15:18:56.430Z,6.68
2023-05-16T15:21:23.125Z,6.22
2023-05-16T15:23:49.717Z,5.63
2023-05-16T15:26:17.086Z,4.85
2023-05-16T15:28:43.145Z,8.02
2023-05-16T15:31:09.035Z,3.70
2023-05-16T15:33:35.120Z,4.78
2023-05-16T15:36:01.232Z,3.03
2023-05-16T15:38:27.308Z,2.38
2023-05-16T15:41:13.132Z,4.60
2023-05-16T15:43:39.402Z,5.18
2023-05-16T15:46:06.199Z,3.60
2023-05-16T15:48:34.928Z,4.03
2023-05-16T15:51:01.219Z,3.60
2023-05-16T15:53:27.198Z,4.20
2023-05-16T15:55:53.676Z,4.07
2023-05-16T15:58:22.544Z,3.95
2023-05-16T16:00:48.923Z,1.52
2023-05-16T16:03:14.948Z,4.20
2023-05-16T16:05:41.322Z,6.50
2023-05-16T16:08:07.302Z,3.45
2023-05-16T16:10:36.233Z,2.15
2023-05-16T16:13:11.485Z,3.33
2023-05-16T16:15:38.319Z,3.97
2023-05-16T16:18:08.415Z,5.45
2023-05-16T16:20:36.963Z,4.57
2023-05-16T16:23:02.959Z,5.75
2023-05-16T16:25:29.257Z,2.00
2023-05-16T16:27:56.274Z,6.28
2023-05-16T16:30:22.590Z,2.05
2023-05-16T16:32:48.736Z,3.85
2023-05-16T16:35:14.854Z,5.32
2023-05-16T16:37:46.545Z,3.60
2023-05-16T16:40:17.527Z,3.33
2023-05-16T16:42:43.696Z,7.13
2023-05-16T16:45:10.008Z,5.07
2023-05-16T16:47:36.039Z,5.68
2023-05-16T16:50:02.199Z,2.72
2023-05-16T16:52:28.316Z,2.75
2023-05-16T16:54:54.236Z,4.63
2023-05-16T16:57:20.098Z,3.38
2023-05-16T16:59:46.148Z,6.28
2023-05-16T17:02:13.105Z,3.45
2023-05-16T17:04:39.303Z,2.85
2023-05-16T17:07:05.208Z,7.63
2023-05-16T17:09:31.522Z,4.22
2023-05-16T17:11:57.452Z,4.22
2023-05-16T17:14:23.344Z,6.85
2023-05-16T17:16:49.302Z,7.30
2023-05-16T17:19:15.560Z,6.13
2023-05-16T17:21:43.032Z,5.30
2023-05-16T17:24:09.153Z,5.15
2023-05-16T17:26:35.612Z,4.70
2023-05-16T17:29:03.753Z,4.28
2023-05-16T17:31:29.805Z,3.30
2023-05-16T17:33:55.897Z,2.03
2023-05-16T17:36:22.129Z,4.07
2023-05-16T17:38:51.571Z,3.90
2023-05-16T17:41:18.218Z,4.75
2023-05-16T17:43:45.574Z,3.03
2023-05-16T17:46:12.296Z,3.20
2023-05-16T17:48:39.114Z,3.05
2023-05-16T17:51:06.318Z,1.45
2023-05-16T17:53:32.423Z,2.78
2023-05-16T17:55:58.734Z,4.00
2023-05-16T17:58:24.662Z,4.10
2023-05-16T18:00:50.601Z,5.43
2023-05-16T18:03:16.952Z,3.85
2023-05-16T18:05:43.460Z,3.50
2023-05-16T18:08:09.425Z,4.43
2023-05-16T18:10:50.507Z,7.80
2023-05-16T18:13:18.032Z,2.55
2023-05-16T18:15:44.118Z,4.68
2023-05-16T18:20:35.431Z,2.35
2023-05-16T18:23:01.378Z,5.82
2023-05-16T18:25:27.487Z,2.35
2023-05-16T18:27:53.551Z,4.32
2023-05-16T18:30:19.619Z,5.65
2023-05-16T18:32:45.821Z,3.45
2023-05-16T18:35:12.645Z,5.60
2023-05-16T18:37:38.556Z,4.25
2023-05-16T18:40:04.848Z,5.30
2023-05-16T18:42:30.973Z,2.80
2023-05-16T18:44:56.807Z,4.60
2023-05-16T18:47:23.123Z,6.82
2023-05-16T18:49:49.134Z,5.78
2023-05-16T18:52:15.978Z,3.25
2023-05-16T18:54:41.964Z,3.00
2023-05-16T18:57:07.876Z,4.00
2023-05-16T18:59:34.483Z,3.13
2023-05-16T19:02:00.549Z,6.05
2023-05-16T19:04:26.531Z,4.80
2023-05-16T19:06:55.632Z,5.03
2023-05-16T19:09:22.273Z,3.30
2023-05-16T19:11:48.444Z,3.97
2023-05-16T19:14:14.940Z,8.57
2023-05-16T19:16:40.875Z,4.15
2023-05-16T19:19:08.003Z,4.53
2023-05-16T19:21:34.324Z,3.53
2023-05-16T19:24:00.171Z,3.95
2023-05-16T19:26:27.118Z,3.65
2023-05-16T19:28:53.162Z,5.88
2023-05-16T19:31:19.170Z,3.88
2023-05-16T19:33:45.395Z,4.25
2023-05-16T19:36:11.266Z,4.90
2023-05-16T19:38:37.271Z,2.45
2023-05-16T19:41:03.097Z,4.30
2023-05-16T19:43:29.229Z,14.18
2023-05-16T19:45:56.177Z,4.97
2023-05-16T19:48:22.202Z,3.40
2023-05-16T19:50:48.576Z,7.05
2023-05-16T19:53:14.644Z,7.22
2023-05-16T19:55:40.878Z,4.72
2023-05-16T19:58:06.906Z,2.35
2023-05-16T20:00:32.812Z,6.20
2023-05-16T20:03:00.263Z,5.72
2023-05-16T20:05:26.529Z,5.35
2023-05-16T20:07:53.951Z,4.85
2023-05-16T20:10:21.874Z,4.13
2023-05-16T20:12:51.403Z,5.00
2023-05-16T20:15:18.239Z,7.90
2023-05-16T20:17:44.618Z,4.75
2023-05-16T20:20:10.640Z,5.75
2023-05-16T20:22:40.720Z,11.70
2023-05-16T20:25:07.000Z,5.03
2023-05-16T20:27:33.177Z,6.78
2023-05-16T20:29:59.059Z,7.63
2023-05-16T20:32:24.927Z,5.90
2023-05-16T20:34:51.326Z,4.15
2023-05-16T20:37:17.242Z,6.63
2023-05-16T20:39:43.116Z,2.33
2023-05-16T20:42:10.377Z,3.63
2023-05-16T20:44:39.968Z,7.53
2023-05-16T20:47:06.362Z,4.85
2023-05-16T20:49:32.829Z,5.85
2023-05-16T20:51:58.736Z,4.05
2023-05-16T20:54:24.965Z,2.50
2023-05-16T20:56:50.927Z,3.60
2023-05-16T20:59:16.718Z,2.25
2023-05-16T21:01:42.680Z,6.80
2023-05-16T21:04:08.442Z,5.82
2023-05-16T21:06:34.355Z,3.00
2023-05-16T21:09:00.163Z,2.92
2023-05-16T21:11:35.635Z,5.05
2023-05-16T21:14:01.502Z,4.85
2023-05-16T21:16:29.260Z,8.27
2023-05-16T21:18:55.392Z,7.22
2023-05-16T21:21:21.299Z,6.03
2023-05-16T21:23:47.181Z,4.93
2023-05-16T21:26:12.963Z,2.15
2023-05-16T21:28:42.772Z,3.47
2023-05-16T21:31:20.069Z,5.93
2023-05-16T21:33:45.887Z,4.30
2023-05-16T21:36:11.761Z,4.63
2023-05-16T21:38:37.544Z,4.78
2023-05-16T21:41:03.373Z,5.55
2023-05-16T21:43:29.155Z,4.50
2023-05-16T21:45:54.917Z,4.22
2023-05-16T21:48:20.787Z,4.88
2023-05-16T21:50:46.711Z,6.68
2023-05-16T21:53:12.574Z,4.00
2023-05-16T21:55:38.364Z,2.80
2023-05-16T21:58:04.188Z,5.72
2023-05-16T22:00:30.190Z,4.78
2023-05-16T22:02:56.012Z,3.03
2023-05-16T22:05:21.958Z,9.07
2023-05-16T22:07:47.730Z,8.38
2023-05-16T22:10:14.391Z,1.95
2023-05-16T22:12:40.262Z,1.98
2023-05-16T22:17:31.693Z,4.35
2023-05-16T22:19:57.575Z,5.18
2023-05-16T22:22:23.365Z,5.45
2023-05-16T22:24:49.126Z,2.17
2023-05-16T22:27:15.045Z,3.10
2023-05-16T22:29:40.800Z,6.53
2023-05-16T22:32:07.565Z,4.38
2023-05-16T22:34:34.629Z,3.75
2023-05-16T22:37:00.410Z,8.95
2023-05-16T22:39:26.283Z,4.20
2023-05-16T22:41:52.223Z,3.92
2023-05-16T22:44:18.056Z,5.95
2023-05-16T22:46:43.892Z,5.40
2023-05-16T22:49:09.782Z,4.47
2023-05-16T22:51:35.648Z,8.95
2023-05-16T22:54:01.402Z,5.43
2023-05-16T22:56:27.153Z,4.07
2023-05-16T22:58:52.922Z,3.05
2023-05-16T23:01:18.724Z,8.25
2023-05-16T23:03:44.640Z,8.95
2023-05-16T23:06:10.630Z,6.80
2023-05-16T23:08:36.442Z,2.40
2023-05-16T23:11:02.465Z,6.30
2023-05-16T23:13:28.239Z,7.70
2023-05-16T23:15:54.062Z,4.40
2023-05-16T23:18:19.898Z,5.00
2023-05-16T23:20:45.839Z,5.57
2023-05-16T23:23:11.619Z,7.10
2023-05-16T23:25:37.411Z,6.25
2023-05-16T23:28:03.234Z,6.13
2023-05-16T23:30:29.003Z,11.50
2023-05-16T23:32:54.984Z,7.78
2023-05-16T23:35:20.897Z,5.00
2023-05-16T23:37:46.878Z,7.50
2023-05-16T23:40:12.809Z,8.63
2023-05-16T23:42:40.478Z,7.10
2023-05-16T23:45:06.557Z,12.23
2023-05-16T23:47:32.429Z,19.17
2023-05-16T23:49:58.262Z,9.10
2023-05-16T23:52:24.050Z,5.65
2023-05-16T23:54:49.902Z,5.70
2023-05-16T23:57:15.682Z,8.68
2023-05-16T23:59:41.498Z,6.80
